AUA27 LOWW-KMCO
Flight info
| Callsign | AUA27 |
|---|---|
| Flight time | N/A |
| Altitude | 36000 |
| Route | LUGEM DCT SUBEN DCT GASKA DCT MASEK DCT TIVUN/N0460F380 DCT ABNED L980 LAM L179 UGBET Q60 OKSAW DCT BIBPE DCT OKTAD DCT MEDOG DCT PEMOB DCT BAKUR DCT MALOT/M080F390 NATE RIKAL/N0464F400 N572A TOPPS DCT BEEKN Q97 KALDA Q131 WAALT Y289 BAHAA DCT HIBAC ALYNA4 |
| Aircraft | A332/H-SDE3GHIJ2J3J5M1RVWXY/LB2D1 |
Departure
| Time | 2026-04-24 07:53 |
|---|---|
| Airport | Vienna International Airport (LOWW) |
Arrival
| Time | N/A |
|---|---|
| Airport | Orlando International Airport (KMCO) |
| Time | Latitude | Longitude | Altitude | Speed | Heading |
|---|---|---|---|---|---|
| 2026-04-24 07:28 | 48.11778 | 16.56191 | 613 ft | 0 kts | 343° |
| 2026-04-24 07:33 | 48.11761 | 16.56198 | 630 ft | 4 kts | 345° |
| 2026-04-24 07:34 | 48.11734 | 16.56208 | 628 ft | 4 kts | 348° |
| 2026-04-24 07:34 | 48.11708 | 16.56215 | 628 ft | 4 kts | 352° |
| 2026-04-24 07:34 | 48.11681 | 16.56220 | 625 ft | 4 kts | 359° |
| 2026-04-24 07:34 | 48.11655 | 16.56217 | 624 ft | 4 kts | 20° |
| 2026-04-24 07:35 | 48.11640 | 16.56205 | 628 ft | 1 kts | 49° |
| 2026-04-24 07:39 | 48.11641 | 16.56207 | 613 ft | 1 kts | 47° |
| 2026-04-24 07:39 | 48.11645 | 16.56218 | 613 ft | 3 kts | 68° |
| 2026-04-24 07:39 | 48.11632 | 16.56271 | 620 ft | 7 kts | 117° |
| 2026-04-24 07:39 | 48.11609 | 16.56338 | 623 ft | 7 kts | 117° |
| 2026-04-24 07:40 | 48.11586 | 16.56406 | 626 ft | 7 kts | 116° |
| 2026-04-24 07:40 | 48.11562 | 16.56476 | 621 ft | 8 kts | 118° |
| 2026-04-24 07:40 | 48.11537 | 16.56552 | 623 ft | 9 kts | 116° |
| 2026-04-24 07:40 | 48.11506 | 16.56648 | 619 ft | 11 kts | 115° |
| 2026-04-24 07:41 | 48.11469 | 16.56761 | 625 ft | 13 kts | 117° |
| 2026-04-24 07:41 | 48.11427 | 16.56889 | 623 ft | 15 kts | 116° |
| 2026-04-24 07:41 | 48.11379 | 16.57033 | 624 ft | 16 kts | 116° |
| 2026-04-24 07:41 | 48.11331 | 16.57184 | 626 ft | 12 kts | 115° |
| 2026-04-24 07:42 | 48.11328 | 16.57193 | 626 ft | 0 kts | 116° |
| 2026-04-24 07:49 | 48.11328 | 16.57195 | 625 ft | 3 kts | 115° |
| 2026-04-24 07:49 | 48.11306 | 16.57262 | 625 ft | 8 kts | 116° |
| 2026-04-24 07:49 | 48.11281 | 16.57335 | 627 ft | 8 kts | 116° |
| 2026-04-24 07:49 | 48.11257 | 16.57410 | 625 ft | 8 kts | 116° |
| 2026-04-24 07:50 | 48.11231 | 16.57487 | 624 ft | 8 kts | 116° |
| 2026-04-24 07:50 | 48.11206 | 16.57565 | 615 ft | 8 kts | 116° |
| 2026-04-24 07:50 | 48.11163 | 16.57608 | 625 ft | 7 kts | 172° |
| 2026-04-24 07:50 | 48.11122 | 16.57580 | 624 ft | 6 kts | 219° |
| 2026-04-24 07:51 | 48.11086 | 16.57539 | 621 ft | 7 kts | 215° |
| 2026-04-24 07:51 | 48.11045 | 16.57503 | 624 ft | 7 kts | 207° |
| 2026-04-24 07:51 | 48.11003 | 16.57470 | 624 ft | 7 kts | 207° |
| 2026-04-24 07:51 | 48.10965 | 16.57429 | 628 ft | 6 kts | 235° |
| 2026-04-24 07:52 | 48.10966 | 16.57376 | 620 ft | 5 kts | 291° |
| 2026-04-24 07:52 | 48.11015 | 16.57220 | 626 ft | 39 kts | 295° |
| 2026-04-24 07:52 | 48.11217 | 16.56603 | 624 ft | 91 kts | 296° |
| 2026-04-24 07:52 | 48.11564 | 16.55539 | 620 ft | 135 kts | 296° |
| 2026-04-24 07:53 | 48.12020 | 16.54123 | 786 ft | 158 kts | 294° |
| 2026-04-24 07:53 | 48.12494 | 16.52605 | 1299 ft | 162 kts | 293° |
| 2026-04-24 07:53 | 48.12625 | 16.50969 | 2034 ft | 163 kts | 258° |
| 2026-04-24 07:53 | 48.11893 | 16.49604 | 2520 ft | 186 kts | 214° |
| 2026-04-24 07:54 | 48.10615 | 16.48757 | 2623 ft | 213 kts | 204° |
| 2026-04-24 07:54 | 48.09187 | 16.47949 | 2866 ft | 228 kts | 206° |
| 2026-04-24 07:54 | 48.07741 | 16.46979 | 3395 ft | 226 kts | 217° |
| 2026-04-24 07:54 | 48.06445 | 16.45556 | 3793 ft | 235 kts | 225° |
| 2026-04-24 07:55 | 48.05175 | 16.43934 | 3983 ft | 252 kts | 226° |
| 2026-04-24 07:55 | 48.03816 | 16.42146 | 4403 ft | 266 kts | 227° |
| 2026-04-24 07:55 | 48.02413 | 16.40309 | 5061 ft | 270 kts | 227° |
| 2026-04-24 07:55 | 48.00992 | 16.38454 | 5818 ft | 272 kts | 227° |
| 2026-04-24 07:56 | 47.99564 | 16.36589 | 6563 ft | 274 kts | 227° |
| 2026-04-24 07:56 | 47.98143 | 16.34666 | 7219 ft | 277 kts | 232° |
| 2026-04-24 07:56 | 47.97083 | 16.32312 | 7840 ft | 271 kts | 254° |
| 2026-04-24 07:56 | 47.96774 | 16.29598 | 8540 ft | 264 kts | 278° |
| 2026-04-24 07:57 | 47.97160 | 16.26926 | 9191 ft | 265 kts | 292° |
| 2026-04-24 07:57 | 47.97782 | 16.24309 | 9822 ft | 271 kts | 294° |
| 2026-04-24 07:57 | 47.98453 | 16.21629 | 10284 ft | 282 kts | 294° |
| 2026-04-24 07:57 | 47.99158 | 16.18798 | 10547 ft | 300 kts | 294° |
| 2026-04-24 07:58 | 47.99895 | 16.15785 | 10800 ft | 317 kts | 293° |
| 2026-04-24 07:58 | 48.00660 | 16.12615 | 11154 ft | 330 kts | 293° |
| 2026-04-24 07:58 | 48.01442 | 16.09345 | 11640 ft | 337 kts | 292° |
| 2026-04-24 07:58 | 48.02235 | 16.06012 | 12192 ft | 343 kts | 293° |
| 2026-04-24 07:59 | 48.03039 | 16.02631 | 12776 ft | 347 kts | 293° |
| 2026-04-24 07:59 | 48.03850 | 15.99213 | 13349 ft | 351 kts | 292° |
| 2026-04-24 07:59 | 48.04660 | 15.95795 | 13896 ft | 355 kts | 292° |
| 2026-04-24 07:59 | 48.05490 | 15.92291 | 14404 ft | 359 kts | 293° |
| 2026-04-24 08:00 | 48.06325 | 15.88755 | 14907 ft | 363 kts | 293° |
| 2026-04-24 08:00 | 48.07170 | 15.85175 | 15383 ft | 367 kts | 293° |
| 2026-04-24 08:00 | 48.08020 | 15.81565 | 15894 ft | 370 kts | 294° |
| 2026-04-24 08:00 | 48.08882 | 15.77925 | 16459 ft | 372 kts | 294° |
| 2026-04-24 08:01 | 48.09758 | 15.74260 | 16932 ft | 376 kts | 293° |
| 2026-04-24 08:01 | 48.10643 | 15.70558 | 17413 ft | 380 kts | 294° |
| 2026-04-24 08:01 | 48.11533 | 15.66829 | 17933 ft | 382 kts | 294° |
| 2026-04-24 08:01 | 48.12431 | 15.63051 | 18402 ft | 386 kts | 294° |
| 2026-04-24 08:02 | 48.13334 | 15.59250 | 18808 ft | 390 kts | 293° |
| 2026-04-24 08:02 | 48.14245 | 15.55413 | 19223 ft | 393 kts | 294° |
| 2026-04-24 08:02 | 48.15123 | 15.51523 | 19638 ft | 396 kts | 290° |
| 2026-04-24 08:02 | 48.15844 | 15.47561 | 20039 ft | 400 kts | 288° |
| 2026-04-24 08:03 | 48.16529 | 15.43498 | 20415 ft | 404 kts | 287° |
| 2026-04-24 08:03 | 48.17204 | 15.39399 | 20824 ft | 407 kts | 287° |
| 2026-04-24 08:03 | 48.17829 | 15.35248 | 21212 ft | 411 kts | 285° |
| 2026-04-24 08:03 | 48.18416 | 15.31038 | 21606 ft | 414 kts | 284° |
| 2026-04-24 08:04 | 48.18985 | 15.26800 | 21995 ft | 417 kts | 284° |
| 2026-04-24 08:04 | 48.19553 | 15.22523 | 22382 ft | 420 kts | 284° |
| 2026-04-24 08:04 | 48.20126 | 15.18222 | 22784 ft | 422 kts | 284° |
| 2026-04-24 08:04 | 48.20707 | 15.13881 | 23135 ft | 425 kts | 284° |
| 2026-04-24 08:05 | 48.21294 | 15.09514 | 23450 ft | 429 kts | 284° |
| 2026-04-24 08:05 | 48.21885 | 15.05123 | 23794 ft | 432 kts | 284° |
| 2026-04-24 08:05 | 48.22481 | 15.00695 | 24112 ft | 434 kts | 284° |
| 2026-04-24 08:05 | 48.23079 | 14.96247 | 24425 ft | 435 kts | 284° |
| 2026-04-24 08:06 | 48.23676 | 14.91794 | 24763 ft | 437 kts | 284° |
| 2026-04-24 08:06 | 48.24274 | 14.87318 | 25077 ft | 438 kts | 284° |
| 2026-04-24 08:06 | 48.24872 | 14.82823 | 25401 ft | 440 kts | 284° |
| 2026-04-24 08:06 | 48.25472 | 14.78301 | 25720 ft | 442 kts | 284° |
| 2026-04-24 08:07 | 48.26064 | 14.73827 | 26031 ft | 443 kts | 284° |
| 2026-04-24 08:07 | 48.26663 | 14.69282 | 26334 ft | 445 kts | 284° |
| 2026-04-24 08:07 | 48.27261 | 14.64727 | 26660 ft | 446 kts | 284° |
| 2026-04-24 08:07 | 48.27860 | 14.60149 | 26958 ft | 448 kts | 284° |
| 2026-04-24 08:08 | 48.28461 | 14.55547 | 27244 ft | 450 kts | 284° |
| 2026-04-24 08:08 | 48.29062 | 14.50929 | 27536 ft | 451 kts | 284° |
| 2026-04-24 08:08 | 48.29663 | 14.46292 | 27834 ft | 453 kts | 284° |
| 2026-04-24 08:09 | 48.30865 | 14.36972 | 28409 ft | 456 kts | 284° |
| 2026-04-24 08:09 | 48.31467 | 14.32277 | 28680 ft | 458 kts | 284° |
| 2026-04-24 08:09 | 48.32068 | 14.27573 | 28918 ft | 460 kts | 285° |
| 2026-04-24 08:09 | 48.32671 | 14.22845 | 29156 ft | 462 kts | 285° |
| 2026-04-24 08:10 | 48.33275 | 14.18088 | 29410 ft | 464 kts | 285° |
| 2026-04-24 08:10 | 48.33880 | 14.13314 | 29677 ft | 465 kts | 285° |
| 2026-04-24 08:10 | 48.34485 | 14.08522 | 29940 ft | 467 kts | 285° |
| 2026-04-24 08:10 | 48.35083 | 14.03765 | 30135 ft | 469 kts | 285° |
| 2026-04-24 08:11 | 48.35688 | 13.98939 | 30175 ft | 470 kts | 285° |
| 2026-04-24 08:11 | 48.36891 | 13.89269 | 30172 ft | 470 kts | 284° |
| 2026-04-24 08:12 | 48.38088 | 13.79583 | 30182 ft | 470 kts | 284° |
| 2026-04-24 08:12 | 48.39275 | 13.69911 | 30187 ft | 470 kts | 284° |
| 2026-04-24 08:13 | 48.40454 | 13.60227 | 30186 ft | 470 kts | 284° |
| 2026-04-24 08:13 | 48.41627 | 13.50534 | 30189 ft | 470 kts | 284° |
| 2026-04-24 08:14 | 48.42895 | 13.40901 | 30191 ft | 466 kts | 290° |
| 2026-04-24 08:14 | 48.44891 | 13.33487 | 30191 ft | 456 kts | 304° |
| 2026-04-24 08:15 | 48.48697 | 13.26012 | 30190 ft | 447 kts | 317° |
| 2026-04-24 08:15 | 48.53041 | 13.19305 | 30192 ft | 447 kts | 319° |
| 2026-04-24 08:16 | 48.57469 | 13.12708 | 30196 ft | 446 kts | 319° |
| 2026-04-24 08:16 | 48.61867 | 13.06106 | 30186 ft | 445 kts | 319° |
| 2026-04-24 08:17 | 48.66228 | 12.99486 | 30186 ft | 444 kts | 319° |
| 2026-04-24 08:17 | 48.70575 | 12.92848 | 30186 ft | 444 kts | 318° |
| 2026-04-24 08:18 | 48.74899 | 12.86227 | 30184 ft | 444 kts | 318° |
| 2026-04-24 08:18 | 48.79238 | 12.79566 | 30184 ft | 444 kts | 318° |
| 2026-04-24 08:19 | 48.83574 | 12.72895 | 30180 ft | 444 kts | 318° |
| 2026-04-24 08:19 | 48.87903 | 12.66217 | 30183 ft | 443 kts | 318° |
| 2026-04-24 08:20 | 48.92222 | 12.59536 | 30188 ft | 443 kts | 318° |
| 2026-04-24 08:20 | 48.96542 | 12.52838 | 30185 ft | 443 kts | 318° |
| 2026-04-24 08:20 | 48.98698 | 12.49488 | 30369 ft | 443 kts | 318° |
| 2026-04-24 08:21 | 49.00855 | 12.46133 | 30611 ft | 443 kts | 318° |
| 2026-04-24 08:21 | 49.03013 | 12.42771 | 30847 ft | 444 kts | 318° |
| 2026-04-24 08:21 | 49.05180 | 12.39392 | 31056 ft | 445 kts | 317° |
| 2026-04-24 08:21 | 49.07351 | 12.36002 | 31286 ft | 446 kts | 317° |
| 2026-04-24 08:22 | 49.09480 | 12.32669 | 31774 ft | 440 kts | 317° |
| 2026-04-24 08:22 | 49.11597 | 12.29348 | 32293 ft | 434 kts | 317° |
| 2026-04-24 08:22 | 49.13697 | 12.26051 | 32620 ft | 433 kts | 317° |
| 2026-04-24 08:22 | 49.15796 | 12.22757 | 32872 ft | 433 kts | 317° |
| 2026-04-24 08:23 | 49.17897 | 12.19455 | 33147 ft | 432 kts | 317° |
| 2026-04-24 08:23 | 49.19989 | 12.16164 | 33400 ft | 432 kts | 317° |
| 2026-04-24 08:23 | 49.22084 | 12.12863 | 33645 ft | 432 kts | 317° |
| 2026-04-24 08:23 | 49.24174 | 12.09564 | 33897 ft | 431 kts | 317° |
| 2026-04-24 08:24 | 49.26260 | 12.06266 | 34133 ft | 431 kts | 317° |
| 2026-04-24 08:24 | 49.28347 | 12.02965 | 34281 ft | 432 kts | 317° |
| 2026-04-24 08:24 | 49.30441 | 11.99646 | 34436 ft | 433 kts | 317° |
| 2026-04-24 08:24 | 49.32534 | 11.96326 | 34651 ft | 432 kts | 317° |
| 2026-04-24 08:25 | 49.34622 | 11.93010 | 34869 ft | 432 kts | 316° |
| 2026-04-24 08:25 | 49.36702 | 11.89699 | 35110 ft | 430 kts | 316° |
| 2026-04-24 08:25 | 49.38770 | 11.86403 | 35378 ft | 428 kts | 316° |
| 2026-04-24 08:25 | 49.40834 | 11.83112 | 35569 ft | 427 kts | 316° |
| 2026-04-24 08:26 | 49.42893 | 11.79824 | 35728 ft | 427 kts | 316° |
| 2026-04-24 08:26 | 49.44955 | 11.76527 | 35904 ft | 427 kts | 316° |
| 2026-04-24 08:26 | 49.46993 | 11.73264 | 36069 ft | 427 kts | 316° |
| 2026-04-24 08:27 | 49.51117 | 11.66653 | 36177 ft | 429 kts | 316° |
| 2026-04-24 08:27 | 49.55248 | 11.60009 | 36174 ft | 430 kts | 316° |
| 2026-04-24 08:28 | 49.59383 | 11.53340 | 36178 ft | 430 kts | 315° |
| 2026-04-24 08:28 | 49.63513 | 11.46661 | 36185 ft | 430 kts | 315° |
| 2026-04-24 08:29 | 49.67632 | 11.39984 | 36185 ft | 429 kts | 315° |
| 2026-04-24 08:29 | 49.71749 | 11.33295 | 36180 ft | 432 kts | 315° |
| 2026-04-24 08:30 | 49.75919 | 11.26502 | 36191 ft | 439 kts | 315° |
| 2026-04-24 08:30 | 49.80164 | 11.19568 | 36192 ft | 445 kts | 315° |
| 2026-04-24 08:31 | 49.84414 | 11.12601 | 36187 ft | 444 kts | 315° |
| 2026-04-24 08:31 | 49.88651 | 11.05638 | 36192 ft | 444 kts | 315° |
| 2026-04-24 08:32 | 49.92884 | 10.98664 | 36188 ft | 443 kts | 314° |
| 2026-04-24 08:32 | 49.97076 | 10.91737 | 36209 ft | 444 kts | 314° |
| 2026-04-24 08:33 | 50.01305 | 10.84732 | 36201 ft | 444 kts | 314° |
| 2026-04-24 08:33 | 50.05533 | 10.77712 | 36214 ft | 444 kts | 314° |
| 2026-04-24 08:34 | 50.09752 | 10.70683 | 36214 ft | 444 kts | 314° |
| 2026-04-24 08:34 | 50.13971 | 10.63636 | 36193 ft | 444 kts | 314° |
| 2026-04-24 08:35 | 50.18181 | 10.56585 | 36189 ft | 444 kts | 313° |
| 2026-04-24 08:35 | 50.22392 | 10.49512 | 36186 ft | 444 kts | 313° |
| 2026-04-24 08:36 | 50.26599 | 10.42426 | 36187 ft | 444 kts | 313° |
| 2026-04-24 08:36 | 50.30776 | 10.35370 | 36189 ft | 444 kts | 313° |
| 2026-04-24 08:37 | 50.34971 | 10.28258 | 36194 ft | 444 kts | 313° |
| 2026-04-24 08:37 | 50.39087 | 10.21031 | 36191 ft | 444 kts | 311° |
| 2026-04-24 08:38 | 50.43146 | 10.13739 | 36197 ft | 443 kts | 311° |
| 2026-04-24 08:38 | 50.47194 | 10.06450 | 36200 ft | 444 kts | 311° |
| 2026-04-24 08:39 | 50.51260 | 9.99131 | 36202 ft | 444 kts | 311° |
| 2026-04-24 08:39 | 50.55328 | 9.91800 | 36207 ft | 445 kts | 311° |
| 2026-04-24 08:40 | 50.59388 | 9.84463 | 36213 ft | 445 kts | 311° |
| 2026-04-24 08:40 | 50.63427 | 9.77142 | 36215 ft | 446 kts | 310° |
| 2026-04-24 08:41 | 50.67495 | 9.69749 | 36220 ft | 446 kts | 310° |
| 2026-04-24 08:41 | 50.71336 | 9.62056 | 36221 ft | 445 kts | 301° |
| 2026-04-24 08:42 | 50.73724 | 9.53097 | 36226 ft | 444 kts | 284° |
| 2026-04-24 08:42 | 50.75102 | 9.43575 | 36224 ft | 445 kts | 281° |
| 2026-04-24 08:43 | 50.76284 | 9.33960 | 36223 ft | 445 kts | 280° |
| 2026-04-24 08:43 | 50.77442 | 9.24411 | 36225 ft | 445 kts | 280° |
| 2026-04-24 08:44 | 50.78626 | 9.14807 | 36224 ft | 445 kts | 281° |
| 2026-04-24 08:44 | 50.79818 | 9.05201 | 36226 ft | 445 kts | 281° |
| 2026-04-24 08:45 | 50.81005 | 8.95594 | 36226 ft | 445 kts | 281° |
| 2026-04-24 08:45 | 50.82181 | 8.85989 | 36224 ft | 445 kts | 280° |
| 2026-04-24 08:46 | 50.83352 | 8.76359 | 36224 ft | 445 kts | 280° |
| 2026-04-24 08:46 | 50.84513 | 8.66731 | 36222 ft | 445 kts | 280° |
| 2026-04-24 08:47 | 50.85650 | 8.57241 | 36221 ft | 445 kts | 280° |
| 2026-04-24 08:47 | 50.86794 | 8.47609 | 36223 ft | 445 kts | 279° |
| 2026-04-24 08:48 | 50.87931 | 8.37979 | 36231 ft | 445 kts | 279° |
| 2026-04-24 08:48 | 50.89060 | 8.28336 | 36237 ft | 445 kts | 279° |
| 2026-04-24 08:49 | 50.90181 | 8.18694 | 36236 ft | 445 kts | 279° |
| 2026-04-24 08:49 | 50.91294 | 8.09041 | 36241 ft | 445 kts | 279° |
| 2026-04-24 08:50 | 50.92440 | 7.99445 | 36241 ft | 445 kts | 283° |
| 2026-04-24 08:50 | 50.94259 | 7.90046 | 36251 ft | 446 kts | 287° |
| 2026-04-24 08:51 | 50.96250 | 7.80716 | 36253 ft | 446 kts | 287° |
| 2026-04-24 08:51 | 50.98270 | 7.71392 | 36266 ft | 446 kts | 287° |
| 2026-04-24 08:52 | 51.00263 | 7.62116 | 36261 ft | 446 kts | 287° |
| 2026-04-24 08:52 | 51.02252 | 7.52776 | 36281 ft | 446 kts | 286° |
| 2026-04-24 08:53 | 51.04231 | 7.43420 | 36285 ft | 447 kts | 286° |
| 2026-04-24 08:53 | 51.06203 | 7.34050 | 36291 ft | 447 kts | 286° |
| 2026-04-24 08:54 | 51.08172 | 7.24655 | 36290 ft | 447 kts | 286° |
| 2026-04-24 08:54 | 51.10130 | 7.15270 | 36295 ft | 447 kts | 286° |
| 2026-04-24 08:55 | 51.12068 | 7.05935 | 36313 ft | 447 kts | 285° |
| 2026-04-24 08:55 | 51.14014 | 6.96520 | 36314 ft | 446 kts | 285° |
| 2026-04-24 08:56 | 51.15944 | 6.87139 | 36317 ft | 445 kts | 285° |
| 2026-04-24 08:56 | 51.17864 | 6.77760 | 36319 ft | 445 kts | 285° |
| 2026-04-24 08:57 | 51.19764 | 6.68433 | 36320 ft | 445 kts | 285° |
| 2026-04-24 08:57 | 51.21671 | 6.59028 | 36319 ft | 445 kts | 284° |
| 2026-04-24 08:58 | 51.23570 | 6.49622 | 36319 ft | 445 kts | 284° |
| 2026-04-24 08:58 | 51.25460 | 6.40211 | 36320 ft | 445 kts | 284° |
| 2026-04-24 08:59 | 51.27345 | 6.30780 | 36320 ft | 445 kts | 284° |
| 2026-04-24 08:59 | 51.29219 | 6.21358 | 36321 ft | 445 kts | 284° |
| 2026-04-24 09:00 | 51.31077 | 6.11978 | 36323 ft | 445 kts | 283° |
| 2026-04-24 09:00 | 51.32937 | 6.02535 | 36327 ft | 445 kts | 283° |
| 2026-04-24 09:01 | 51.34789 | 5.93086 | 36327 ft | 445 kts | 283° |
| 2026-04-24 09:01 | 51.36634 | 5.83624 | 36326 ft | 445 kts | 283° |
| 2026-04-24 09:02 | 51.38473 | 5.74153 | 36330 ft | 445 kts | 283° |
| 2026-04-24 09:02 | 51.39998 | 5.66261 | 36323 ft | 447 kts | 283° |
| 2026-04-24 09:03 | 51.41831 | 5.56727 | 36320 ft | 447 kts | 283° |
| 2026-04-24 09:03 | 51.43657 | 5.47191 | 36319 ft | 447 kts | 283° |
| 2026-04-24 09:04 | 51.45472 | 5.37657 | 36325 ft | 447 kts | 283° |
| 2026-04-24 09:04 | 51.47263 | 5.28211 | 36331 ft | 445 kts | 282° |
| 2026-04-24 09:05 | 51.49053 | 5.18717 | 36321 ft | 446 kts | 282° |
| 2026-04-24 09:05 | 51.50846 | 5.09150 | 36321 ft | 447 kts | 282° |
| 2026-04-24 09:06 | 51.52628 | 4.99599 | 36319 ft | 447 kts | 282° |
| 2026-04-24 09:06 | 51.54405 | 4.90029 | 36319 ft | 447 kts | 282° |
| 2026-04-24 09:07 | 51.56159 | 4.80527 | 36330 ft | 446 kts | 282° |
| 2026-04-24 09:07 | 51.58800 | 4.66135 | 36324 ft | 447 kts | 281° |
| 2026-04-24 09:08 | 51.60552 | 4.56524 | 36323 ft | 447 kts | 281° |
| 2026-04-24 09:08 | 51.62295 | 4.46912 | 36322 ft | 447 kts | 281° |
| 2026-04-24 09:09 | 51.64030 | 4.37290 | 36324 ft | 447 kts | 281° |
| 2026-04-24 09:09 | 51.65757 | 4.27667 | 36326 ft | 447 kts | 281° |
| 2026-04-24 09:10 | 51.67464 | 4.18104 | 36328 ft | 447 kts | 281° |
| 2026-04-24 09:10 | 51.69174 | 4.08471 | 36332 ft | 447 kts | 281° |
| 2026-04-24 09:11 | 51.70876 | 3.98832 | 36335 ft | 447 kts | 281° |
| 2026-04-24 09:11 | 51.72569 | 3.89190 | 36336 ft | 447 kts | 281° |
| 2026-04-24 09:12 | 51.74256 | 3.79533 | 36342 ft | 447 kts | 281° |
| 2026-04-24 09:12 | 51.75935 | 3.69864 | 36341 ft | 447 kts | 280° |
| 2026-04-24 09:13 | 51.77607 | 3.60188 | 36349 ft | 447 kts | 280° |
| 2026-04-24 09:13 | 51.79269 | 3.50520 | 36350 ft | 447 kts | 280° |
| 2026-04-24 09:14 | 51.80911 | 3.40907 | 36354 ft | 447 kts | 280° |
| 2026-04-24 09:14 | 51.82558 | 3.31214 | 36353 ft | 447 kts | 280° |
| 2026-04-24 09:15 | 51.84142 | 3.21498 | 36355 ft | 444 kts | 276° |
| 2026-04-24 09:15 | 51.84509 | 3.11675 | 36356 ft | 435 kts | 262° |
| 2026-04-24 09:16 | 51.84013 | 3.01953 | 36361 ft | 434 kts | 259° |
| 2026-04-24 09:16 | 51.83374 | 2.92259 | 36371 ft | 435 kts | 262° |
| 2026-04-24 09:17 | 51.83135 | 2.82472 | 36364 ft | 437 kts | 265° |
| 2026-04-24 09:17 | 51.83040 | 2.72638 | 36373 ft | 437 kts | 265° |
| 2026-04-24 09:18 | 51.82962 | 2.62803 | 36373 ft | 437 kts | 265° |
| 2026-04-24 09:18 | 51.82865 | 2.52977 | 36378 ft | 437 kts | 265° |
| 2026-04-24 09:19 | 51.82750 | 2.43207 | 36379 ft | 437 kts | 265° |
| 2026-04-24 09:19 | 51.82622 | 2.33382 | 36374 ft | 437 kts | 265° |
| 2026-04-24 09:20 | 51.82488 | 2.23546 | 36377 ft | 437 kts | 265° |
| 2026-04-24 09:20 | 51.82345 | 2.13717 | 36377 ft | 437 kts | 265° |
| 2026-04-24 09:21 | 51.82196 | 2.03964 | 36375 ft | 437 kts | 265° |
| 2026-04-24 09:21 | 51.82038 | 1.94149 | 36400 ft | 437 kts | 265° |
| 2026-04-24 09:22 | 51.81871 | 1.84343 | 36382 ft | 436 kts | 265° |
| 2026-04-24 09:22 | 51.81697 | 1.74539 | 36382 ft | 436 kts | 265° |
| 2026-04-24 09:23 | 51.81514 | 1.64733 | 36382 ft | 436 kts | 265° |
| 2026-04-24 09:23 | 51.81323 | 1.54935 | 36379 ft | 436 kts | 265° |
| 2026-04-24 09:24 | 51.81126 | 1.45202 | 36388 ft | 436 kts | 266° |
| 2026-04-24 09:24 | 51.80919 | 1.35422 | 36374 ft | 435 kts | 265° |
| 2026-04-24 09:25 | 51.80705 | 1.25655 | 36375 ft | 434 kts | 265° |
| 2026-04-24 09:25 | 51.80482 | 1.15902 | 36378 ft | 434 kts | 265° |
| 2026-04-24 09:26 | 51.80252 | 1.06150 | 36373 ft | 433 kts | 266° |
| 2026-04-24 09:26 | 51.80015 | 0.96448 | 36383 ft | 431 kts | 266° |
| 2026-04-24 09:27 | 51.79770 | 0.86776 | 36376 ft | 430 kts | 266° |
| 2026-04-24 09:27 | 51.79518 | 0.77111 | 36374 ft | 430 kts | 266° |
| 2026-04-24 09:28 | 51.79259 | 0.67511 | 36378 ft | 430 kts | 266° |
| 2026-04-24 09:28 | 51.78991 | 0.57845 | 36378 ft | 430 kts | 266° |
| 2026-04-24 09:29 | 51.78716 | 0.48188 | 36376 ft | 430 kts | 266° |
| 2026-04-24 09:29 | 51.78431 | 0.38540 | 36375 ft | 430 kts | 266° |
| 2026-04-24 09:30 | 51.78140 | 0.28881 | 36374 ft | 430 kts | 266° |
| 2026-04-24 09:30 | 51.77841 | 0.19243 | 36374 ft | 430 kts | 266° |
| 2026-04-24 09:31 | 51.77536 | 0.09660 | 36375 ft | 430 kts | 266° |
| 2026-04-24 09:31 | 51.77221 | 0.00032 | 36367 ft | 430 kts | 266° |
| 2026-04-24 09:32 | 51.76898 | -0.09614 | 36398 ft | 430 kts | 266° |
| 2026-04-24 09:32 | 51.76567 | -0.19267 | 36401 ft | 430 kts | 266° |
| 2026-04-24 09:33 | 51.76228 | -0.28914 | 36400 ft | 430 kts | 266° |
| 2026-04-24 09:33 | 51.75882 | -0.38554 | 36399 ft | 430 kts | 266° |
| 2026-04-24 09:34 | 51.75527 | -0.48202 | 36396 ft | 430 kts | 266° |
| 2026-04-24 09:34 | 51.75164 | -0.57831 | 36375 ft | 430 kts | 266° |
| 2026-04-24 09:35 | 51.74794 | -0.67475 | 36373 ft | 430 kts | 265° |
| 2026-04-24 09:35 | 51.74418 | -0.77048 | 36372 ft | 430 kts | 265° |
| 2026-04-24 09:36 | 51.74032 | -0.86691 | 36370 ft | 430 kts | 265° |
| 2026-04-24 09:36 | 51.73638 | -0.96328 | 36351 ft | 430 kts | 265° |
| 2026-04-24 09:37 | 51.73235 | -1.05964 | 36350 ft | 431 kts | 266° |
| 2026-04-24 09:37 | 51.72825 | -1.15609 | 36349 ft | 431 kts | 266° |
| 2026-04-24 09:38 | 51.72407 | -1.25266 | 36374 ft | 431 kts | 265° |
| 2026-04-24 09:38 | 51.71980 | -1.34909 | 36598 ft | 429 kts | 265° |
| 2026-04-24 09:39 | 51.71768 | -1.39647 | 36838 ft | 427 kts | 265° |
| 2026-04-24 09:39 | 51.71553 | -1.44419 | 37025 ft | 426 kts | 265° |
| 2026-04-24 09:39 | 51.71334 | -1.49198 | 37148 ft | 427 kts | 265° |
| 2026-04-24 09:39 | 51.71113 | -1.53989 | 37270 ft | 428 kts | 265° |
| 2026-04-24 09:40 | 51.70891 | -1.58774 | 37428 ft | 428 kts | 265° |
| 2026-04-24 09:40 | 51.70667 | -1.63562 | 37588 ft | 428 kts | 265° |
| 2026-04-24 09:40 | 51.70583 | -1.68360 | 37743 ft | 428 kts | 272° |
| 2026-04-24 09:40 | 51.70796 | -1.73151 | 37884 ft | 429 kts | 274° |
| 2026-04-24 09:41 | 51.71087 | -1.77948 | 38033 ft | 429 kts | 275° |
| 2026-04-24 09:41 | 51.71425 | -1.82722 | 38165 ft | 429 kts | 277° |
| 2026-04-24 09:41 | 51.71987 | -1.87458 | 38292 ft | 430 kts | 281° |
| 2026-04-24 09:41 | 51.72638 | -1.92114 | 38372 ft | 431 kts | 282° |
| 2026-04-24 09:42 | 51.74034 | -2.01527 | 38370 ft | 431 kts | 283° |